Data for 06/05/2009

Time Sea-Level Adjusted Pressure Absolute Pressure Temperature Relative Humidity Dew Point   
(mb) (inHg) (mb) (inHg) (C) (F) (%) (C) (F)
00:05 1020 30.12 849 25.07 13.2 55.8 55 4.4 40
00:10 1020 30.12 849 25.07 13.3 55.9 54 4.3 39.7
00:15 1020 30.12 849 25.07 13.4 56.1 55 4.5 40
00:20 1020 30.12 849 25.07 13.4 56.1 55 4.5 40.2
00:25 1020 30.12 849 25.07 13.3 56 57 5 41
00:30 1020 30.12 849 25.07 13.2 55.7 58 5.2 41.4
00:35 1020 30.12 849 25.07 13 55.4 61 5.6 42.1
00:40 1020 30.12 849 25.07 12.7 54.9 64 6.1 43
00:45 1020 30.12 849 25.07 12.5 54.4 63 5.8 42.4
00:50 1020 30.12 849 25.07 12.3 54.2 67 6.3 43.4
00:55 1020 30.12 849 25.07 12.1 53.7 67 6.2 43.2
01:00 1020 30.12 849 25.07 12 53.5 68 6.3 43.3
01:05 1020 30.12 849 25.07 11.9 53.4 70 6.6 43.8
01:10 1020 30.12 849 25.07 11.8 53.3 69 6.4 43.4
01:15 1019 30.09 849 25.07 11.8 53.3 69 6.3 43.3
01:20 1019 30.09 849 25.07 11.8 53.3 68 6.1 43
01:25 1019 30.09 848 25.04 11.9 53.5 68 6.2 43.1
01:30 1019 30.09 848 25.04 11.8 53.3 69 6.4 43.6
01:35 1019 30.09 848 25.04 11.7 53.1 70 6.5 43.7
01:40 1019 30.09 848 25.04 11.6 53 71 6.6 43.8
01:45 1019 30.09 848 25.04 11.6 52.8 68 6 42.8
01:50 1019 30.09 848 25.04 11.7 53.1 70 6.5 43.6
01:55 1019 30.09 848 25.04 11.6 52.8 71 6.6 43.8
02:00 1019 30.09 848 25.04 11.4 52.6 72 6.5 43.7
02:05 1019 30.09 848 25.04 11.4 52.5 72 6.5 43.7
02:10 1019 30.09 848 25.04 11.5 52.6 71 6.3 43.4
02:15 1019 30.09 848 25.04 11.5 52.7 72 6.6 43.9
02:20 1019 30.09 848 25.04 11.4 52.5 72 6.5 43.7
02:25 1018 30.06 848 25.04 11.4 52.5 69 6 42.7
02:30 1018 30.06 847 25.01 11.6 52.9 67 5.7 42.3
02:35 1018 30.06 847 25.01 11.7 53.1 69 6.2 43.1
02:40 1018 30.06 847 25.01 11.6 52.9 69 6.3 43.3
02:45 1018 30.06 847 25.01 11.5 52.7 71 6.5 43.8
02:50 1018 30.06 848 25.04 11.3 52.4 71 6.4 43.5
02:55 1018 30.06 848 25.04 11.3 52.3 71 6.3 43.4
03:00 1018 30.06 848 25.04 11.3 52.3 71 6.2 43.2
03:05 1018 30.06 848 25.04 11.4 52.6 68 5.8 42.5
03:10 1018 30.06 848 25.04 11.7 53.1 65 5.5 41.9
03:15 1018 30.06 848 25.04 12 53.6 64 5.5 41.9
03:20 1018 30.06 847 25.01 12.2 53.9 62 5.2 41.4
03:25 1018 30.06 847 25.01 12.3 54.1 62 5.3 41.5
03:30 1018 30.06 847 25.01 12.3 54.1 62 5.3 41.6
03:35 1018 30.06 847 25.01 12.2 53.9 63 5.4 41.7
03:40 1018 30.06 847 25.01 11.9 53.4 66 5.8 42.5
03:45 1018 30.06 847 25.01 11.6 52.9 68 6 42.9
03:50 1018 30.06 847 25.01 11.5 52.6 68 5.8 42.4
03:55 1018 30.06 847 25.01 11.4 52.5 67 5.6 42
04:00 1018 30.06 847 25.01 11.4 52.5 67 5.5 41.9
04:05 1018 30.06 847 25.01 11.3 52.3 68 5.6 42
04:10 1018 30.06 847 25.01 11.2 52.2 69 5.8 42.4
04:15 1018 30.06 847 25.01 11.1 52 68 5.6 42
04:20 1018 30.06 847 25.01 11.1 52 67 5.3 41.6
04:25 1018 30.06 847 25.01 11.1 52 67 5.3 41.6
04:30 1018 30.06 847 25.01 11.1 51.9 67 5.3 41.5
04:35 1018 30.06 847 25.01 11 51.8 68 5.3 41.6
04:40 1018 30.06 847 25.01 10.9 51.7 68 5.4 41.7
04:45 1017 30.03 847 25.01 10.8 51.5 68 5.3 41.5
04:50 1017 30.03 846 24.98 10.8 51.5 69 5.4 41.7
04:55 1017 30.03 846 24.98 10.7 51.3 69 5.3 41.5
05:00 1017 30.03 846 24.98 10.7 51.2 69 5.3 41.5
05:05 1017 30.03 846 24.98 10.6 51.1 69 5.1 41.3
05:10 1017 30.03 846 24.98 10.6 51 69 5.1 41.2
05:15 1017 30.03 846 24.98 10.6 51 69 5.1 41.1
05:20 1017 30.03 846 24.98 10.6 51 69 5.1 41.2
05:25 1017 30.03 846 24.98 10.4 50.8 69 5 41.1
05:30 1017 30.03 846 24.98 10.4 50.8 69 5.1 41.2
05:35 1017 30.03 846 24.98 10.3 50.6 70 5.2 41.3
05:40 1017 30.03 846 24.98 10.3 50.6 70 5.2 41.3
05:45 1017 30.03 846 24.98 10.2 50.4 72 5.3 41.6
05:50 1017 30.03 846 24.98 10.1 50.2 71 5.2 41.4
05:55 1017 30.03 846 24.98 10.1 50.1 72 5.3 41.6
06:00 1016 30 846 24.98 10 50 73 5.4 41.7
06:05 1016 30 846 24.98 9.9 49.9 74 5.5 41.9
06:10 1016 30 845 24.95 9.9 49.8 74 5.5 41.9
06:15 1016 30 845 24.95 10 49.9 74 5.6 42
06:20 1016 30 845 24.95 9.9 49.8 74 5.5 42
06:25 1016 30 845 24.95 9.8 49.6 75 5.6 42.1
06:30 1016 30 845 24.95 9.7 49.5 75 5.6 42
06:35 1016 30 845 24.95 9.9 49.7 75 5.6 42
06:40 1016 30 845 24.95 9.9 49.8 75 5.7 42.3
06:45 1016 30 845 24.95 9.9 49.8 75 5.7 42.2
06:50 1016 30 845 24.95 9.8 49.7 76 5.7 42.3
06:55 1016 30 845 24.95 9.9 49.8 75 5.7 42.2
07:00 1016 30 846 24.98 10 50 75 5.7 42.3
07:05 1016 30 846 24.98 10.1 50.2 74 5.8 42.4
07:10 1016 30 846 24.98 10.2 50.4 74 5.9 42.6
07:15 1016 30 846 24.98 10.3 50.5 74 5.9 42.6
07:20 1016 30 846 24.98 10.4 50.7 74 5.9 42.6
07:25 1016 30 845 24.95 10.5 50.9 73 5.9 42.6
07:30 1016 30 845 24.95 10.5 51 73 5.9 42.6
07:35 1016 30 845 24.95 10.6 51.1 72 5.8 42.5
07:40 1016 30 845 24.95 10.7 51.2 72 5.8 42.5
07:45 1016 30 845 24.95 10.8 51.4 71 5.8 42.5
07:50 1016 30 845 24.95 11 51.7 70 5.8 42.5
07:55 1016 30 845 24.95 11 51.8 70 5.8 42.5
08:00 1016 30 845 24.95 11.1 51.9 70 5.9 42.5
08:05 1016 30 845 24.95 11.3 52.3 70 6.1 43
08:10 1016 30 845 24.95 11.4 52.4 70 6.1 42.9
08:15 1016 30 845 24.95 11.5 52.6 70 6.2 43.1
08:20 1016 30 845 24.95 11.5 52.7 69 6 42.8
08:25 1016 30 845 24.95 11.6 52.8 69 6 42.9
08:30 1016 30 845 24.95 11.7 53 68 6 42.8
08:35 1016 30 845 24.95 11.9 53.5 67 5.9 42.7
08:40 1016 30 845 24.95 12.1 53.8 66 6.1 42.9
08:45 1016 30 845 24.95 12.3 54.1 66 6.1 43.1
08:50 1016 30 845 24.95 12.4 54.3 66 6.3 43.3
08:55 1016 30 845 24.95 12.4 54.4 66 6.2 43.2
09:00 1015 29.97 845 24.95 12.5 54.5 65 6.2 43.1
09:05 1015 29.97 844 24.92 12.7 54.9 64 6 42.8
09:10 1015 29.97 844 24.92 12.7 54.9 64 6.2 43.2
09:15 1015 29.97 844 24.92 12.9 55.3 65 6.5 43.8
09:20 1015 29.97 844 24.92 12.7 54.8 65 6.4 43.5
09:25 1015 29.97 844 24.92 12.6 54.6 66 6.4 43.5
09:30 1015 29.97 844 24.92 12.5 54.5 67 6.5 43.7
09:35 1015 29.97 844 24.92 12.4 54.4 67 6.6 43.9
09:40 1015 29.97 844 24.92 12.3 54.2 67 6.5 43.7
09:45 1015 29.97 844 24.92 12.3 54.1 68 6.6 43.8
09:50 1015 29.97 844 24.92 12.4 54.3 67 6.4 43.6
09:55 1015 29.97 844 24.92 12.5 54.5 67 6.5 43.8
10:00 1015 29.97 844 24.92 12.7 54.8 66 6.5 43.6
10:05 1014 29.94 844 24.92 12.9 55.2 65 6.6 43.8
10:10 1014 29.94 844 24.92 13.1 55.5 65 6.6 44
10:15 1014 29.94 844 24.92 13.4 56.1 63 6.7 44
10:20 1014 29.94 844 24.92 13.6 56.5 62 6.5 43.8
10:25 1014 29.94 843 24.89 14 57.1 61 6.6 43.8
10:30 1014 29.94 843 24.89 14.4 57.9 60 6.7 44
10:35 1014 29.94 843 24.89 14.3 57.7 60 6.8 44.2
10:40 1014 29.94 843 24.89 14.2 57.5 60 6.5 43.7
10:45 1014 29.94 843 24.89 14.4 57.9 59 6.5 43.7
10:50 1014 29.94 843 24.89 14.7 58.4 58 6.6 43.9
10:55 1014 29.94 843 24.89 14.9 58.9 58 6.7 44.1
11:00 1014 29.94 843 24.89 15 59 58 6.9 44.4
11:05 1014 29.94 843 24.89 14.7 58.4 58 6.6 44
11:10 1014 29.94 843 24.89 14.9 58.8 57 6.6 43.9
11:15 1014 29.94 843 24.89 14.9 58.8 58 6.7 44.1
11:20 1014 29.94 843 24.89 15 58.9 57 6.6 44
11:25 1014 29.94 843 24.89 14.7 58.5 58 6.7 44
11:30 1014 29.94 843 24.89 14.9 58.9 57 6.7 44
11:35 1014 29.94 843 24.89 15.1 59.2 58 7 44.5
11:40 1013 29.91 843 24.89 15.1 59.2 58 6.9 44.4
11:45 1013 29.91 843 24.89 15.6 60.1 55 6.6 43.9
11:50 1013 29.91 843 24.89 15.4 59.8 56 6.8 44.2
11:55 1013 29.91 843 24.89 15.7 60.3 55 6.7 44.1
12:00 1013 29.91 842 24.86 16 60.8 56 7.3 45.1
12:05 1013 29.91 842 24.86 15.9 60.5 53 6.5 43.6
12:10 1013 29.91 842 24.86 16.1 60.9 53 6.6 43.8
12:15 1013 29.91 842 24.86 16.3 61.3 52 6.5 43.7
12:20 1013 29.91 842 24.86 16.2 61.1 52 6.4 43.5
12:25 1013 29.91 842 24.86 16.1 61 54 6.8 44.3
12:30 1013 29.91 842 24.86 16.1 60.9 53 6.5 43.8
12:35 1013 29.91 842 24.86 16.3 61.3 54 7.1 44.8
12:40 1013 29.91 842 24.86 16.4 61.4 52 6.6 43.9
12:45 1013 29.91 842 24.86 16.6 61.8 51 6.4 43.6
12:50 1013 29.91 842 24.86 16.5 61.7 52 6.6 44
12:55 1013 29.91 842 24.86 16.8 62.3 51 6.7 44
13:00 1013 29.91 842 24.86 17.1 62.8 50 6.8 44.3
13:05 1012 29.88 842 24.86 17.4 63.4 50 7 44.6
13:10 1012 29.88 842 24.86 16.9 62.5 52 7.1 44.8
13:15 1012 29.88 841 24.83 16.6 62 52 6.9 44.4
13:20 1012 29.88 841 24.83 16.8 62.3 52 7 44.7
13:25 1012 29.88 841 24.83 16.9 62.5 52 7 44.7
13:30 1012 29.88 841 24.83 16.7 62.1 51 6.6 43.9
13:35 1012 29.88 841 24.83 17 62.6 51 7 44.7
13:40 1012 29.88 841 24.83 17.3 63.1 49 6.5 43.7
13:45 1012 29.88 841 24.83 17.4 63.4 51 7.4 45.4
13:50 1012 29.88 841 24.83 17.2 63 52 7.3 45.2
13:55 1012 29.88 841 24.83 16.8 62.2 52 6.9 44.4
14:00 1012 29.88 841 24.83 16.5 61.8 52 6.8 44.2
14:05 1012 29.88 841 24.83 16.6 61.9 52 6.9 44.5
14:10 1012 29.88 841 24.83 16.7 62.1 52 7 44.6
14:15 1012 29.88 841 24.83 16.6 62 53 7 44.7
14:20 1012 29.88 841 24.83 16.5 61.8 53 6.9 44.5
14:25 1012 29.88 841 24.83 16.2 61.1 55 7.2 45
14:30 1012 29.88 841 24.83 16.2 61.2 56 7.5 45.5
14:35 1012 29.88 841 24.83 16.2 61.1 56 7.5 45.5
14:40 1011 29.85 841 24.83 15.6 60 57 7.1 44.9
14:45 1011 29.85 841 24.83 15.6 60.1 56 6.9 44.4
14:50 1011 29.85 841 24.83 15.6 60 57 7.2 45
14:55 1011 29.85 841 24.83 15.8 60.4 57 7.4 45.3
15:00 1011 29.85 840 24.81 15.8 60.4 58 7.5 45.6
15:05 1011 29.85 840 24.81 15.7 60.3 58 7.5 45.5
15:10 1011 29.85 840 24.81 15.6 60.1 59 7.7 45.9
15:15 1011 29.85 840 24.81 15.5 59.9 59 7.6 45.6
15:20 1011 29.85 840 24.81 15.4 59.8 59 7.6 45.6
15:25 1010 29.83 840 24.81 15.7 60.3 57 7.3 45.2
15:30 1010 29.83 840 24.81 16.2 61.1 57 7.8 46
15:35 1010 29.83 840 24.81 16.1 61 58 8 46.4
15:40 1010 29.83 839 24.78 15.8 60.4 61 8.3 47
15:45 1010 29.83 839 24.78 15.6 60.1 59 7.8 46
15:50 1010 29.83 839 24.78 15.2 59.4 62 8 46.4
15:55 1010 29.83 839 24.78 15.1 59.2 62 8 46.4
16:00 1010 29.83 840 24.81 14.6 58.2 64 7.9 46.3
16:05 1011 29.85 840 24.81 14.1 57.3 66 7.9 46.2
16:10 1011 29.85 840 24.81 13.6 56.5 67 7.6 45.8
16:15 1011 29.85 840 24.81 13.3 55.9 68 7.5 45.5
16:20 1011 29.85 840 24.81 13 55.4 69 7.4 45.4
16:25 1011 29.85 840 24.81 12.9 55.3 69 7.3 45.2
16:30 1011 29.85 840 24.81 12.9 55.3 69 7.4 45.3
16:35 1010 29.83 840 24.81 12.7 54.8 69 7.1 44.7
16:40 1010 29.83 840 24.81 12.5 54.5 69 7 44.6
16:45 1010 29.83 840 24.81 12.4 54.3 70 7.1 44.8
16:50 1011 29.85 840 24.81 12.4 54.2 70 7 44.6
16:55 1010 29.83 840 24.81 12.1 53.7 71 6.9 44.5
17:00 1010 29.83 839 24.78 12 53.5 70 6.7 44.1
17:05 1010 29.83 839 24.78 11.9 53.4 71 6.8 44.2
17:10 1010 29.83 839 24.78 11.9 53.4 70 6.7 44.1
17:15 1010 29.83 839 24.78 11.8 53.2 70 6.6 43.9
17:20 1010 29.83 839 24.78 11.7 53.1 70 6.5 43.8
17:25 1010 29.83 839 24.78 11.7 53.1 70 6.5 43.7
17:30 1010 29.83 839 24.78 11.6 52.9 70 6.4 43.6
17:35 1011 29.85 840 24.81 11.6 52.8 71 6.4 43.6
17:40 1011 29.85 840 24.81 11.5 52.7 71 6.5 43.6
17:45 1011 29.85 840 24.81 11.4 52.6 72 6.5 43.7
17:50 1011 29.85 840 24.81 11.3 52.4 72 6.5 43.7
17:55 1011 29.85 840 24.81 11.1 51.9 73 6.4 43.5
18:00 1011 29.85 840 24.81 10.9 51.7 73 6.3 43.4
18:05 1011 29.85 840 24.81 10.8 51.4 76 6.7 44
18:10 1011 29.85 840 24.81 10.4 50.7 80 7.1 44.8
18:15 1011 29.85 840 24.81 10 50 83 7.3 45.2
18:20 1011 29.85 840 24.81 9.7 49.4 86 7.4 45.3
18:25 1011 29.85 840 24.81 9.5 49.1 85 7.2 44.9
18:30 1011 29.85 840 24.81 9.4 48.9 85 7.1 44.8
18:35 1011 29.85 840 24.81 9.4 48.9 86 7.1 44.7
18:40 1011 29.85 840 24.81 9.3 48.7 87 7.3 45.1
18:45 1011 29.85 840 24.81 9.1 48.5 89 7.4 45.3
18:50 1011 29.85 841 24.83 9.1 48.3 88 7.2 45
18:55 1011 29.85 841 24.83 8.9 48 91 7.4 45.4
19:00 1011 29.85 840 24.81 8.8 47.8 92 7.5 45.5
19:05 1011 29.85 840 24.81 8.7 47.7 91 7.3 45.2
19:10 1011 29.85 840 24.81 8.6 47.5 92 7.4 45.3
19:15 1011 29.85 840 24.81 8.5 47.3 92 7.3 45.2
19:20 1011 29.85 840 24.81 8.5 47.2 93 7.4 45.4
19:25 1011 29.85 840 24.81 8.4 47.1 93 7.3 45.1
19:30 1010 29.83 840 24.81 8.4 47.1 92 7.2 45
19:35 1010 29.83 839 24.78 8.4 47.2 92 7.2 44.9
19:40 1010 29.83 839 24.78 8.5 47.3 92 7.3 45.1
19:45 1010 29.83 839 24.78 8.6 47.5 91 7.3 45.1
19:50 1010 29.83 839 24.78 8.8 47.9 90 7.3 45.1
19:55 1010 29.83 839 24.78 8.9 48 90 7.3 45.2
20:00 1010 29.83 840 24.81 8.9 47.9 89 7.2 44.9
20:05 1010 29.83 840 24.81 8.8 47.8 90 7.3 45.1
20:10 1010 29.83 839 24.78 8.7 47.7 88 6.9 44.5
20:15 1010 29.83 839 24.78 8.6 47.5 88 6.7 44.1
20:20 1010 29.83 839 24.78 8.6 47.5 89 6.8 44.3
20:25 1010 29.83 839 24.78 8.5 47.3 87 6.5 43.8
20:30 1010 29.83 839 24.78 8.5 47.3 88 6.7 44.1
20:35 1010 29.83 840 24.81 8.4 47.1 87 6.4 43.6
20:40 1010 29.83 840 24.81 8.3 47 88 6.4 43.6
20:45 1010 29.83 840 24.81 8.3 46.9 88 6.3 43.4
20:50 1010 29.83 840 24.81 8.2 46.7 88 6.3 43.3
20:55 1010 29.83 840 24.81 8.1 46.5 89 6.4 43.6
21:00 1010 29.83 840 24.81 8 46.3 89 6.2 43.2
21:05 1010 29.83 839 24.78 7.9 46.2 90 6.4 43.5
21:10 1010 29.83 839 24.78 7.8 46 90 6.3 43.3
21:15 1010 29.83 839 24.78 7.7 45.9 90 6.2 43.2
21:20 1010 29.83 839 24.78 7.7 45.9 91 6.3 43.3
21:25 1010 29.83 839 24.78 7.8 46 90 6.2 43.1
21:30 1010 29.83 839 24.78 7.8 46.1 90 6.2 43.2
21:35 1010 29.83 839 24.78 7.8 46 90 6.2 43.2
21:40 1010 29.83 839 24.78 7.8 46 90 6.2 43.1
21:45 1010 29.83 839 24.78 7.8 46 89 6.1 42.9
21:50 1010 29.83 839 24.78 7.8 46 90 6.2 43.1
21:55 1010 29.83 839 24.78 7.7 45.9 89 6 42.8
22:00 1010 29.83 840 24.81 7.7 45.9 89 6 42.8
22:05 1010 29.83 840 24.81 7.7 45.9 89 6.1 42.9
22:10 1010 29.83 840 24.81 7.7 45.8 90 6.2 43.1
22:15 1010 29.83 840 24.81 7.6 45.8 89 6 42.8
22:20 1010 29.83 840 24.81 7.7 45.8 89 6 42.7
22:25 1010 29.83 840 24.81 7.7 45.8 89 6 42.8
22:30 1010 29.83 840 24.81 7.6 45.7 89 6 42.7
22:35 1010 29.83 840 24.81 7.6 45.6 90 6 42.9
22:40 1010 29.83 840 24.81 7.5 45.6 90 5.9 42.7
22:45 1010 29.83 840 24.81 7.5 45.5 90 5.9 42.7
22:50 1010 29.83 839 24.78 7.4 45.4 89 5.8 42.4
22:55 1011 29.85 840 24.81 7.4 45.4 90 5.9 42.7
23:00 1011 29.85 840 24.81 7.4 45.3 90 5.8 42.5
23:05 1010 29.83 840 24.81 7.3 45.1 89 5.6 42.1
23:10 1010 29.83 840 24.81 7.2 45 89 5.6 42.1
23:15 1010 29.83 840 24.81 7.2 44.9 89 5.4 41.8
23:20 1011 29.85 840 24.81 7.2 44.9 89 5.5 41.9
23:25 1011 29.85 840 24.81 7.1 44.7 88 5.2 41.3
23:30 1011 29.85 840 24.81 7.1 44.8 88 5.2 41.4
23:35 1010 29.83 840 24.81 7.1 44.7 87 5 41.1
23:40 1011 29.85 840 24.81 7.1 44.8 87 5.1 41.1
23:45 1011 29.85 840 24.81 7.1 44.7 88 5.2 41.4
23:50 1011 29.85 840 24.81 6.9 44.5 89 5.3 41.6
23:55 1011 29.85 840 24.81 6.7 44.1 92 5.5 42
24:00 1010 29.83 839 24.78 6.5 43.7 93 5.4 41.7